Time;durP1;ratioP1;P1;durP2;ratioP2;P2;SDS_P1;SDS_P2;PMS_P1;PMS_P2;Temp;Humidity;BMP_temperature;BMP_pressure;BME280_temperature;BME280_humidity;BME280_pressure;Samples;Min_cycle;Max_cycle;Signal;HPM_P1;HPM_P2
2021/04/16 00:00:11;;;;;;;4.00;1.40;;;3.80;99.90;;;;;;5122210;28;20028;-71
2021/04/16 00:02:37;;;;;;;2.13;1.77;;;3.80;99.90;;;;;;5112176;28;20059;-73
2021/04/16 00:05:04;;;;;;;1.60;1.50;;;3.80;99.90;;;;;;5113360;28;20051;-71
2021/04/16 00:07:29;;;;;;;3.38;1.48;;;3.80;99.90;;;;;;5112443;28;20039;-73
2021/04/16 00:09:55;;;;;;;2.85;1.45;;;3.80;99.90;;;;;;5112394;28;20532;-72
2021/04/16 00:12:21;;;;;;;2.25;1.52;;;3.80;99.90;;;;;;5112604;28;20490;-73
2021/04/16 00:14:47;;;;;;;2.63;1.55;;;3.80;99.90;;;;;;5103731;28;20032;-72
2021/04/16 00:17:12;;;;;;;2.03;1.52;;;3.70;99.90;;;;;;5092208;28;20424;-72
2021/04/16 00:19:38;;;;;;;1.90;1.52;;;3.80;99.90;;;;;;5092046;28;20028;-72
2021/04/16 00:22:03;;;;;;;3.22;1.60;;;3.70;99.90;;;;;;5091513;28;20111;-72
2021/04/16 00:24:29;;;;;;;2.05;1.45;;;3.70;99.90;;;;;;5091764;28;20119;-73
2021/04/16 00:26:56;;;;;;;2.15;1.42;;;3.70;99.90;;;;;;5092448;28;20036;-72
2021/04/16 00:29:21;;;;;;;5.05;1.70;;;3.60;99.90;;;;;;5091247;28;20047;-72
2021/04/16 00:31:50;;;;;;;2.10;1.60;;;3.60;99.90;;;;;;5092714;28;20437;-72
2021/04/16 00:34:19;;;;;;;13.05;2.10;;;3.50;99.90;;;;;;5091572;28;20043;-72
2021/04/16 00:36:44;;;;;;;2.55;1.67;;;3.50;99.90;;;;;;5091302;28;20475;-72
2021/04/16 00:39:10;;;;;;;2.25;1.63;;;3.50;99.90;;;;;;5092299;28;20027;-72
2021/04/16 00:41:36;;;;;;;4.95;2.42;;;3.40;99.90;;;;;;5090470;28;20024;-72
2021/04/16 00:44:01;;;;;;;2.97;1.50;;;3.40;99.90;;;;;;5091477;28;20169;-72
2021/04/16 00:46:48;;;;;;;1.92;1.73;;;3.40;99.90;;;;;;5091411;28;20075;-72
2021/04/16 00:49:25;;;;;;;2.20;1.73;;;3.40;99.90;;;;;;5099918;28;20035;-72
2021/04/16 00:51:58;;;;;;;2.47;1.65;;;3.30;99.90;;;;;;5111521;28;20332;-73
2021/04/16 00:54:32;;;;;;;1.70;1.50;;;3.30;99.90;;;;;;5112244;28;20051;-73
2021/04/16 00:56:58;;;;;;;2.30;1.40;;;3.30;99.90;;;;;;5111405;28;20088;-73
2021/04/16 00:59:28;;;;;;;2.58;2.00;;;3.20;99.90;;;;;;5104586;28;20054;-73
2021/04/16 01:01:58;;;;;;;2.95;1.92;;;3.10;99.90;;;;;;5106049;28;20023;-72
2021/04/16 01:04:24;;;;;;;5.67;1.97;;;3.10;99.90;;;;;;5111521;28;20059;-72
2021/04/16 01:06:51;;;;;;;2.58;1.95;;;3.00;99.90;;;;;;5112023;28;20126;-71
2021/04/16 01:09:17;;;;;;;2.03;1.63;;;3.00;99.90;;;;;;5112220;28;20107;-72
2021/04/16 01:11:43;;;;;;;1.92;1.40;;;2.90;99.90;;;;;;5111511;28;20020;-71
2021/04/16 01:14:09;;;;;;;2.42;1.80;;;2.90;99.90;;;;;;5111799;28;20020;-71
2021/04/16 01:16:35;;;;;;;2.38;1.85;;;2.80;99.90;;;;;;5111678;28;20060;-72
2021/04/16 01:19:07;;;;;;;1.70;1.60;;;2.80;99.90;;;;;;5111273;28;20112;-71
2021/04/16 01:21:46;;;;;;;2.25;1.58;;;2.80;99.90;;;;;;5111947;28;20023;-71
2021/04/16 01:24:19;;;;;;;3.15;1.55;;;2.70;99.90;;;;;;5111863;28;20076;-72
2021/04/16 01:26:45;;;;;;;3.72;1.80;;;2.70;99.90;;;;;;5111145;28;20040;-72
2021/04/16 01:29:11;;;;;;;2.85;1.92;;;2.70;99.90;;;;;;5112018;28;20039;-73
2021/04/16 01:31:47;;;;;;;2.08;1.88;;;2.70;99.90;;;;;;5112007;28;20030;-72
2021/04/16 01:34:21;;;;;;;3.40;2.40;;;2.70;99.90;;;;;;5111233;28;20031;-73
2021/04/16 01:36:49;;;;;;;2.25;1.88;;;2.70;99.90;;;;;;5112233;28;20038;-72
2021/04/16 01:39:14;;;;;;;3.00;1.88;;;2.70;99.90;;;;;;5111240;28;20020;-71
2021/04/16 01:41:40;;;;;;;2.30;1.85;;;2.70;99.90;;;;;;5111786;28;20406;-71
2021/04/16 01:44:11;;;;;;;2.05;1.60;;;2.70;99.90;;;;;;5113489;28;20390;-71
2021/04/16 01:46:57;;;;;;;1.98;1.55;;;2.70;99.90;;;;;;5097083;28;20191;-73
2021/04/16 01:49:33;;;;;;;3.17;1.92;;;2.70;99.90;;;;;;5109346;28;20349;-72
2021/04/16 01:52:00;;;;;;;1.92;1.52;;;2.70;99.90;;;;;;5097642;28;20100;-73
2021/04/16 01:54:30;;;;;;;1.70;1.58;;;2.60;99.90;;;;;;5099599;28;20028;-74
2021/04/16 01:57:03;;;;;;;4.63;1.92;;;2.70;99.90;;;;;;5110118;28;20353;-73
2021/04/16 01:59:32;;;;;;;3.85;2.00;;;2.70;99.90;;;;;;5112117;28;20070;-72
2021/04/16 02:01:58;;;;;;;3.42;1.80;;;2.70;99.90;;;;;;5115692;28;20012;-71
2021/04/16 02:04:24;;;;;;;2.92;1.98;;;2.70;99.90;;;;;;5115341;28;20034;-72
2021/04/16 02:06:51;;;;;;;2.60;2.30;;;2.70;99.90;;;;;;5111334;28;20028;-72
2021/04/16 02:09:20;;;;;;;1.98;1.80;;;2.60;99.90;;;;;;5094671;28;20027;-72
2021/04/16 02:11:46;;;;;;;2.42;1.98;;;2.60;99.90;;;;;;5110920;28;20031;-72
2021/04/16 02:14:13;;;;;;;11.15;2.20;;;2.60;99.90;;;;;;5114555;28;20487;-72
2021/04/16 02:16:41;;;;;;;2.20;1.70;;;2.50;99.90;;;;;;5114851;28;20169;-72
2021/04/16 02:19:07;;;;;;;5.35;2.15;;;2.40;99.90;;;;;;5115399;28;20100;-73
2021/04/16 02:21:32;;;;;;;2.47;1.83;;;2.50;99.90;;;;;;5114235;28;20776;-72
2021/04/16 02:23:58;;;;;;;3.65;2.28;;;2.40;99.90;;;;;;5111035;28;20013;-72
2021/04/16 02:26:24;;;;;;;2.33;1.88;;;2.40;99.90;;;;;;5105025;28;20368;-72
2021/04/16 02:28:49;;;;;;;4.80;2.25;;;2.40;99.90;;;;;;5114491;28;20023;-72
2021/04/16 02:31:15;;;;;;;2.60;2.20;;;2.40;99.90;;;;;;5115360;28;20336;-72
2021/04/16 02:33:42;;;;;;;4.05;2.00;;;2.40;99.90;;;;;;5114660;28;20027;-73
2021/04/16 02:36:09;;;;;;;2.10;1.90;;;2.30;99.90;;;;;;5114156;28;20023;-72
2021/04/16 02:38:35;;;;;;;3.15;2.05;;;2.30;99.90;;;;;;5114525;28;20478;-72
2021/04/16 02:41:01;;;;;;;3.13;2.10;;;2.30;99.90;;;;;;5114678;28;20039;-72
2021/04/16 02:43:27;;;;;;;2.65;1.92;;;2.50;99.90;;;;;;5113853;28;20020;-71
2021/04/16 02:45:52;;;;;;;1.90;1.60;;;2.20;99.90;;;;;;5114376;28;20066;-72
2021/04/16 02:48:18;;;;;;;5.20;2.53;;;2.20;99.90;;;;;;5114212;28;20039;-72
2021/04/16 02:50:44;;;;;;;2.08;1.58;;;2.20;99.90;;;;;;5113906;28;20366;-72
2021/04/16 02:53:10;;;;;;;4.57;2.50;;;2.10;99.90;;;;;;5114594;28;20027;-72
2021/04/16 02:55:35;;;;;;;6.00;2.15;;;2.10;99.90;;;;;;5113738;28;20019;-72
2021/04/16 02:58:01;;;;;;;2.70;2.13;;;2.10;99.90;;;;;;5109864;28;20042;-71
2021/04/16 03:00:29;;;;;;;2.15;1.95;;;2.10;99.90;;;;;;5102988;28;20103;-71
2021/04/16 03:02:58;;;;;;;2.60;1.92;;;2.10;99.90;;;;;;5114335;28;20028;-71
2021/04/16 03:05:24;;;;;;;5.82;2.50;;;2.00;99.90;;;;;;5113379;28;20035;-72
2021/04/16 03:07:52;;;;;;;2.55;2.33;;;2.00;99.90;;;;;;5113776;28;20046;-72
2021/04/16 03:10:25;;;;;;;2.47;2.10;;;2.00;99.90;;;;;;5113960;28;20412;-73
2021/04/16 03:12:51;;;;;;;4.03;1.90;;;2.00;99.90;;;;;;5113975;28;20372;-72
2021/04/16 03:15:18;;;;;;;4.20;2.55;;;2.00;99.90;;;;;;5114239;28;20098;-73
2021/04/16 03:17:44;;;;;;;3.70;2.38;;;1.90;99.90;;;;;;5113414;28;20032;-73
2021/04/16 03:20:11;;;;;;;7.97;2.45;;;1.90;99.90;;;;;;5114012;28;20016;-72
2021/04/16 03:22:36;;;;;;;5.22;2.42;;;1.90;99.90;;;;;;5114001;28;20027;-72
2021/04/16 03:25:04;;;;;;;7.63;2.65;;;1.90;99.90;;;;;;5113022;28;20034;-72
2021/04/16 03:27:29;;;;;;;2.75;2.05;;;1.90;99.90;;;;;;5113282;28;20050;-71
2021/04/16 03:29:55;;;;;;;3.35;3.05;;;1.80;99.90;;;;;;5113712;28;20020;-72
2021/04/16 03:32:21;;;;;;;3.85;2.78;;;1.80;99.90;;;;;;5113008;28;20106;-72
2021/04/16 03:34:46;;;;;;;6.15;2.80;;;1.80;99.90;;;;;;5113980;27;20102;-72
2021/04/16 03:37:12;;;;;;;3.47;2.72;;;1.80;99.90;;;;;;5113716;28;20055;-72
2021/04/16 03:39:37;;;;;;;5.20;2.78;;;1.80;99.90;;;;;;5112637;28;20035;-72
2021/04/16 03:42:03;;;;;;;3.42;2.85;;;1.70;99.90;;;;;;5114424;28;20080;-72
2021/04/16 03:44:29;;;;;;;3.60;3.05;;;1.70;99.90;;;;;;5115400;28;20020;-72
2021/04/16 03:46:54;;;;;;;3.10;2.78;;;1.70;99.90;;;;;;5114503;28;20047;-73
2021/04/16 03:49:20;;;;;;;6.30;2.85;;;1.70;99.90;;;;;;5112986;28;20019;-73
2021/04/16 03:51:54;;;;;;;3.83;2.70;;;1.70;99.90;;;;;;5115755;28;20023;-73
2021/04/16 03:54:20;;;;;;;3.00;2.60;;;1.70;99.90;;;;;;5124113;28;20027;-72
2021/04/16 03:56:46;;;;;;;5.50;3.08;;;1.70;99.90;;;;;;5121877;28;20046;-73
2021/04/16 03:59:12;;;;;;;4.55;2.70;;;1.80;99.90;;;;;;5108134;28;20452;-73
2021/04/16 04:01:38;;;;;;;4.18;3.28;;;1.70;99.90;;;;;;5120868;28;20028;-73
2021/04/16 04:04:04;;;;;;;4.63;3.05;;;1.70;99.90;;;;;;5113211;28;20043;-73
2021/04/16 04:06:30;;;;;;;4.78;3.38;;;1.70;99.90;;;;;;5112102;28;20071;-73
2021/04/16 04:08:55;;;;;;;6.10;4.05;;;1.70;99.90;;;;;;5111681;28;20012;-72
2021/04/16 04:11:21;;;;;;;6.03;3.15;;;1.80;99.90;;;;;;5112427;28;20069;-72
2021/04/16 04:13:46;;;;;;;6.65;3.90;;;1.80;99.90;;;;;;5112268;28;20118;-72
2021/04/16 04:16:12;;;;;;;5.40;3.45;;;1.70;99.90;;;;;;5113117;28;20020;-72
2021/04/16 04:18:37;;;;;;;5.85;3.60;;;1.70;99.90;;;;;;5112635;28;20028;-72
2021/04/16 04:21:03;;;;;;;10.23;4.25;;;1.70;99.90;;;;;;5112367;28;20024;-72
2021/04/16 04:23:29;;;;;;;7.15;4.88;;;1.70;99.90;;;;;;5112300;28;20046;-72
2021/04/16 04:25:55;;;;;;;5.57;4.32;;;1.70;99.90;;;;;;5112397;28;20371;-72
2021/04/16 04:28:21;;;;;;;6.95;5.03;;;1.70;99.90;;;;;;5111606;28;20031;-72
2021/04/16 04:30:46;;;;;;;6.72;5.05;;;1.60;99.90;;;;;;5112588;28;20065;-72
2021/04/16 04:33:12;;;;;;;8.05;5.28;;;1.60;99.90;;;;;;5112392;28;20028;-73
2021/04/16 04:35:38;;;;;;;10.15;5.40;;;1.60;99.90;;;;;;5110959;28;20082;-72
2021/04/16 04:38:04;;;;;;;7.65;5.57;;;1.60;99.90;;;;;;5112346;28;20034;-72
2021/04/16 04:40:30;;;;;;;9.27;4.90;;;1.60;99.90;;;;;;5111810;28;20356;-72
2021/04/16 04:42:56;;;;;;;8.02;6.20;;;1.50;99.90;;;;;;5111765;28;20387;-72
2021/04/16 04:45:23;;;;;;;10.65;5.82;;;1.50;99.90;;;;;;5111984;28;20019;-73
2021/04/16 04:47:49;;;;;;;13.63;7.10;;;1.50;99.90;;;;;;5112066;28;20054;-71
2021/04/16 04:50:15;;;;;;;11.35;6.50;;;1.60;99.90;;;;;;5111644;28;20020;-73
2021/04/16 04:52:41;;;;;;;11.60;6.88;;;1.60;99.90;;;;;;5111866;28;20513;-71
2021/04/16 04:55:12;;;;;;;13.75;6.85;;;1.60;99.90;;;;;;5111965;28;20375;-72
2021/04/16 04:57:38;;;;;;;11.00;7.55;;;1.60;99.90;;;;;;5097020;28;20023;-72
2021/04/16 05:00:07;;;;;;;15.80;7.53;;;1.60;99.90;;;;;;5112296;28;20027;-72
2021/04/16 05:02:33;;;;;;;17.80;9.02;;;1.60;99.90;;;;;;5112036;28;20020;-72
2021/04/16 05:04:58;;;;;;;8.73;7.25;;;1.60;99.90;;;;;;5111263;28;20049;-72
2021/04/16 05:07:25;;;;;;;11.82;7.78;;;1.60;99.90;;;;;;5111957;28;20032;-72
2021/04/16 05:09:51;;;;;;;14.07;7.53;;;1.60;99.90;;;;;;5112436;28;20035;-73
2021/04/16 05:12:17;;;;;;;12.98;7.70;;;1.60;99.90;;;;;;5112072;28;20023;-73
2021/04/16 05:14:42;;;;;;;13.77;7.53;;;1.70;99.90;;;;;;5110628;28;20080;-72
2021/04/16 05:17:08;;;;;;;12.65;7.78;;;1.60;99.90;;;;;;5106091;28;20082;-73
2021/04/16 05:19:34;;;;;;;13.60;7.68;;;1.70;99.90;;;;;;5099365;27;20507;-73
2021/04/16 05:22:01;;;;;;;14.48;7.18;;;1.80;99.90;;;;;;5098733;28;20032;-72
2021/04/16 05:24:31;;;;;;;11.60;6.55;;;1.70;99.90;;;;;;5094330;28;20019;-73
2021/04/16 05:26:57;;;;;;;16.55;7.45;;;1.80;99.90;;;;;;5095588;28;20517;-72
2021/04/16 05:29:23;;;;;;;14.52;7.53;;;1.80;99.90;;;;;;5094641;28;20496;-72
2021/04/16 05:31:49;;;;;;;12.05;7.55;;;1.80;99.90;;;;;;5094806;28;20032;-72
2021/04/16 05:34:14;;;;;;;13.02;7.13;;;1.90;99.90;;;;;;5094866;28;20016;-72
2021/04/16 05:36:40;;;;;;;12.98;6.82;;;2.00;99.90;;;;;;5096199;28;20028;-73
2021/04/16 05:39:06;;;;;;;9.20;6.93;;;2.00;99.90;;;;;;5094355;28;20016;-72
2021/04/16 05:41:31;;;;;;;14.57;7.22;;;2.00;99.90;;;;;;5106520;28;20020;-72
2021/04/16 05:43:57;;;;;;;9.85;6.75;;;2.10;99.90;;;;;;5097554;28;20367;-73
2021/04/16 05:46:22;;;;;;;10.55;7.22;;;2.10;99.90;;;;;;5103332;28;20173;-72
2021/04/16 05:48:48;;;;;;;16.83;7.03;;;2.10;99.90;;;;;;5103899;27;20047;-73
2021/04/16 05:51:13;;;;;;;12.88;7.20;;;2.20;99.90;;;;;;5105484;28;20076;-73
2021/04/16 05:53:39;;;;;;;16.92;6.65;;;2.20;99.90;;;;;;5105277;28;20039;-72
2021/04/16 05:56:05;;;;;;;8.93;7.07;;;2.30;99.90;;;;;;5113420;28;20395;-72
2021/04/16 05:58:31;;;;;;;9.98;6.60;;;2.30;99.90;;;;;;5110810;28;20038;-73
2021/04/16 06:00:57;;;;;;;9.27;6.00;;;2.30;99.90;;;;;;5109921;28;20476;-73
2021/04/16 06:03:22;;;;;;;9.52;6.05;;;2.30;99.90;;;;;;5106433;28;20383;-72
2021/04/16 06:05:48;;;;;;;10.93;6.47;;;2.40;99.90;;;;;;5107272;28;20019;-72
2021/04/16 06:08:17;;;;;;;9.60;6.53;;;2.40;99.90;;;;;;5102548;28;20024;-71
2021/04/16 06:10:43;;;;;;;12.65;6.28;;;2.40;99.90;;;;;;5102997;28;20008;-72
2021/04/16 06:13:08;;;;;;;10.40;6.28;;;2.50;99.90;;;;;;5101263;28;20365;-72
2021/04/16 06:15:34;;;;;;;13.55;6.57;;;2.50;99.90;;;;;;5102945;28;20027;-73
2021/04/16 06:17:59;;;;;;;6.15;5.45;;;2.70;99.90;;;;;;5102192;28;20085;-73
2021/04/16 06:20:26;;;;;;;6.57;5.03;;;2.70;99.90;;;;;;5106644;28;20058;-72
2021/04/16 06:22:54;;;;;;;8.35;5.65;;;2.80;99.90;;;;;;5110688;28;20023;-72
2021/04/16 06:25:24;;;;;;;10.85;4.90;;;2.90;99.90;;;;;;5113102;28;20027;-73
2021/04/16 06:27:50;;;;;;;7.28;5.10;;;3.00;99.90;;;;;;5101911;28;20036;-72
2021/04/16 06:30:18;;;;;;;9.93;5.57;;;3.00;99.90;;;;;;5108956;28;20020;-73
2021/04/16 06:32:45;;;;;;;7.15;5.22;;;3.10;99.90;;;;;;5108335;28;20024;-73
2021/04/16 06:35:13;;;;;;;8.40;4.88;;;3.20;99.90;;;;;;5106168;28;20110;-73
2021/04/16 06:37:39;;;;;;;14.63;5.75;;;3.30;99.90;;;;;;5111200;27;20080;-73
2021/04/16 06:40:10;;;;;;;10.88;4.68;;;3.50;99.90;;;;;;5113704;28;20546;-73
2021/04/16 06:42:36;;;;;;;8.77;5.15;;;3.60;99.90;;;;;;5110890;28;20506;-73
2021/04/16 06:45:06;;;;;;;11.23;5.30;;;3.70;99.90;;;;;;5111303;28;20024;-73
2021/04/16 06:47:41;;;;;;;8.60;4.68;;;3.80;99.90;;;;;;5109705;28;20120;-76
2021/04/16 06:50:11;;;;;;;9.68;4.25;;;3.90;99.90;;;;;;5108603;28;20057;-77
2021/04/16 06:52:54;;;;;;;7.38;4.80;;;4.00;99.90;;;;;;5105652;28;20038;-76
2021/04/16 06:55:25;;;;;;;8.15;4.80;;;4.10;99.90;;;;;;5107244;28;20015;-76
2021/04/16 06:58:16;;;;;;;8.98;4.57;;;4.20;99.90;;;;;;5110143;28;20020;-76
2021/04/16 07:00:56;;;;;;;;;;;4.20;99.90;;;;;;5112205;28;20016;-77
2021/04/16 07:03:30;;;;;;;7.07;4.45;;;4.40;99.90;;;;;;5112944;28;19939;-76
2021/04/16 07:05:57;;;;;;;6.97;4.68;;;4.50;99.90;;;;;;5111868;28;20019;-76
2021/04/16 07:08:33;;;;;;;7.05;4.45;;;4.60;99.90;;;;;;5106197;27;20030;-77
2021/04/16 07:10:59;;;;;;;11.90;4.32;;;4.70;99.90;;;;;;5103463;28;20069;-76
2021/04/16 07:13:36;;;;;;;9.52;4.00;;;4.80;99.90;;;;;;5110698;28;20020;-76
2021/04/16 07:16:06;;;;;;;7.35;4.30;;;4.90;99.90;;;;;;5108923;28;20069;-77
2021/04/16 07:18:41;;;;;;;11.85;4.85;;;5.10;99.90;;;;;;5102847;28;20016;-77
2021/04/16 07:21:08;;;;;;;14.57;4.47;;;5.20;99.90;;;;;;5094878;28;20482;-80
2021/04/16 07:23:43;;;;;;;6.90;4.30;;;5.30;99.90;;;;;;5098301;28;20037;-78
2021/04/16 07:26:39;;;;;;;7.82;4.57;;;5.40;99.90;;;;;;5097465;28;20034;-79
2021/04/16 07:29:06;;;;;;;11.20;5.75;;;5.50;99.90;;;;;;5095997;28;20051;-78
2021/04/16 07:31:46;;;;;;;12.63;5.63;;;5.60;99.90;;;;;;5103044;28;20111;-79
2021/04/16 07:34:37;;;;;;;13.52;5.18;;;5.80;99.90;;;;;;5096666;28;20108;-78
2021/04/16 07:37:17;;;;;;;;;;;5.90;99.90;;;;;;5094758;28;20708;-78
2021/04/16 07:40:05;;;;;;;16.63;6.22;;;6.00;99.90;;;;;;5094759;28;19904;-78
2021/04/16 07:42:46;;;;;;;10.07;5.60;;;6.10;99.90;;;;;;5095786;28;20024;-77
2021/04/16 07:45:38;;;;;;;11.50;5.30;;;6.20;99.90;;;;;;5097829;28;20028;-76
2021/04/16 07:48:25;;;;;;;7.72;4.93;;;6.30;99.90;;;;;;5104918;28;20059;-77
2021/04/16 07:50:57;;;;;;;10.32;5.55;;;6.40;99.90;;;;;;5097737;28;20020;-77
2021/04/16 07:53:28;;;;;;;13.20;5.25;;;6.40;99.90;;;;;;5098566;28;20028;-75
2021/04/16 07:56:07;;;;;;;12.13;5.28;;;6.50;99.90;;;;;;5105483;28;20029;-79
2021/04/16 07:58:33;;;;;;;10.55;4.93;;;6.60;99.90;;;;;;5095094;28;20047;-77
2021/04/16 08:01:14;;;;;;;8.48;5.00;;;6.70;99.90;;;;;;5113858;28;20552;-72
2021/04/16 08:03:49;;;;;;;8.70;4.63;;;6.70;99.90;;;;;;5114833;28;20085;-79
2021/04/16 08:06:35;;;;;;;11.25;4.15;;;6.80;99.90;;;;;;5093455;28;20028;-75
2021/04/16 08:09:01;;;;;;;14.38;4.40;;;6.80;99.90;;;;;;5105421;28;20032;-77
2021/04/16 08:11:29;;;;;;;10.20;3.90;;;6.90;99.90;;;;;;5112872;28;20435;-78
2021/04/16 08:14:20;;;;;;;14.13;4.28;;;7.00;99.90;;;;;;5102371;28;20032;-79
2021/04/16 08:16:54;;;;;;;;;;;7.10;99.90;;;;;;5093871;28;20059;-78
2021/04/16 08:19:27;;;;;;;6.85;3.67;;;7.20;99.90;;;;;;5096238;28;19908;-79
2021/04/16 08:22:20;;;;;;;10.15;3.20;;;7.30;99.90;;;;;;5117040;28;20393;-77
2021/04/16 08:25:01;;;;;;;16.20;5.28;;;7.40;99.90;;;;;;5101935;28;20103;-80
2021/04/16 08:27:37;;;;;;;;;;;7.40;99.90;;;;;;5113849;28;20043;-82
2021/04/16 08:30:24;;;;;;;9.90;4.10;;;7.50;99.90;;;;;;5113453;28;20003;-80
2021/04/16 08:33:01;;;;;;;20.38;4.45;;;7.60;99.90;;;;;;5113258;28;20027;-82
2021/04/16 08:35:35;;;;;;;10.27;4.30;;;7.70;99.90;;;;;;5112923;28;20077;-82
2021/04/16 08:38:07;;;;;;;6.68;3.50;;;7.80;99.90;;;;;;5105158;28;20057;-81
2021/04/16 08:40:34;;;;;;;5.13;3.00;;;7.80;99.90;;;;;;5108133;28;20039;-82
2021/04/16 08:43:01;;;;;;;8.18;3.67;;;7.80;99.90;;;;;;5106826;28;20069;-82
2021/04/16 08:45:31;;;;;;;7.85;3.15;;;7.90;99.90;;;;;;5102681;28;20129;-80
2021/04/16 08:48:32;;;;;;;8.20;4.03;;;7.90;99.90;;;;;;5119304;27;20525;-81
2021/04/16 08:51:03;;;;;;;6.95;3.40;;;7.90;99.90;;;;;;5115131;27;20092;-78
2021/04/16 08:53:28;;;;;;;5.30;3.05;;;8.00;99.90;;;;;;5132617;27;20027;-78
2021/04/16 08:55:54;;;;;;;12.63;3.08;;;8.10;99.90;;;;;;5112441;28;20031;-77
2021/04/16 08:58:23;;;;;;;5.22;3.17;;;8.20;99.90;;;;;;5120472;27;20106;-76
2021/04/16 09:00:55;;;;;;;8.73;3.55;;;8.20;99.90;;;;;;5125940;28;20019;-81
2021/04/16 09:03:23;;;;;;;7.80;3.17;;;8.30;99.90;;;;;;5133509;28;20506;-79
2021/04/16 09:06:02;;;;;;;8.35;3.63;;;8.30;99.90;;;;;;5133778;28;20408;-79
2021/04/16 09:08:38;;;;;;;4.68;2.38;;;8.40;99.90;;;;;;5133467;27;20027;-80
2021/04/16 09:11:06;;;;;;;3.13;2.15;;;8.50;99.90;;;;;;5133550;27;20062;-80
2021/04/16 09:13:40;;;;;;;4.43;2.30;;;8.50;99.90;;;;;;5119704;28;20032;-79
2021/04/16 09:16:15;;;;;;;3.38;2.33;;;8.50;99.90;;;;;;5125743;27;20021;-80
2021/04/16 09:18:49;;;;;;;7.38;2.67;;;8.50;99.90;;;;;;5129434;27;20023;-79
2021/04/16 09:21:22;;;;;;;8.88;2.45;;;8.60;99.90;;;;;;5128623;28;20023;-78
2021/04/16 09:23:47;;;;;;;6.18;2.28;;;8.70;99.90;;;;;;5129917;27;20011;-77
2021/04/16 09:26:48;;;;;;;6.07;2.92;;;8.70;99.90;;;;;;5130149;27;20173;-80
2021/04/16 09:29:26;;;;;;;9.77;2.67;;;8.70;99.90;;;;;;5072042;28;20164;-79
2021/04/16 09:31:54;;;;;;;11.02;2.35;;;8.80;99.90;;;;;;5127460;27;20058;-79
2021/04/16 09:34:23;;;;;;;6.22;2.83;;;9.00;99.90;;;;;;5130615;28;20023;-79
2021/04/16 09:36:53;;;;;;;3.80;2.45;;;9.10;99.90;;;;;;5128093;27;20024;-81
2021/04/16 09:39:59;;;;;;;7.78;2.33;;;9.10;99.90;;;;;;5127962;28;20117;-79
2021/04/16 09:42:40;;;;;;;3.00;2.20;;;9.20;99.90;;;;;;5073842;27;20479;-79
2021/04/16 09:45:34;;;;;;;8.10;2.47;;;9.20;99.50;;;;;;5126575;28;20027;-78
2021/04/16 09:48:01;;;;;;;6.70;2.58;;;9.40;99.90;;;;;;5131846;28;20050;-78
2021/04/16 09:50:38;;;;;;;3.53;2.67;;;9.50;99.50;;;;;;5112250;28;20079;-78
2021/04/16 09:53:11;;;;;;;5.00;2.67;;;9.70;99.50;;;;;;5100534;28;20477;-79
2021/04/16 09:55:55;;;;;;;4.15;2.33;;;9.70;98.40;;;;;;5103157;28;20024;-79
2021/04/16 09:58:38;;;;;;;4.88;2.60;;;9.70;99.20;;;;;;5120840;28;20016;-80
2021/04/16 10:01:09;;;;;;;8.65;2.10;;;9.80;99.20;;;;;;5122526;28;20109;-82
2021/04/16 10:03:54;;;;;;;3.75;2.13;;;9.80;96.50;;;;;;5120587;28;20055;-81
2021/04/16 10:06:29;;;;;;;5.07;1.85;;;9.80;93.40;;;;;;5127481;27;20385;-80
2021/04/16 10:09:20;;;;;;;4.75;2.10;;;9.70;91.80;;;;;;5133909;27;20028;-81
2021/04/16 10:11:53;;;;;;;5.63;2.33;;;9.80;91.90;;;;;;5122072;27;20027;-81
2021/04/16 10:14:24;;;;;;;3.75;2.40;;;9.90;91.70;;;;;;5117728;27;20088;-81
2021/04/16 10:16:52;;;;;;;;;;;10.10;91.20;;;;;;5117000;27;20023;-81
2021/04/16 10:19:21;;;;;;;4.47;2.25;;;10.10;90.50;;;;;;5118505;27;19911;-80
2021/04/16 10:21:48;;;;;;;2.78;2.20;;;10.20;90.50;;;;;;5118528;27;20012;-80
2021/04/16 11:04:30;;;;;;;6.93;2.00;;;10.50;86.80;;;;;;5130107;27;20387;-81
2021/04/16 11:17:38;;;;;;;11.73;1.90;;;10.60;79.80;;;;;;5125211;27;20034;-81
2021/04/16 12:40:25;;;;;;;5.70;2.33;;;11.50;67.90;;;;;;5131413;27;20035;-80
2021/04/16 12:42:53;;;;;;;2.10;1.90;;;11.50;70.00;;;;;;5129496;27;20482;-81
2021/04/16 12:45:19;;;;;;;3.17;1.88;;;11.60;68.80;;;;;;5131420;27;20083;-80
2021/04/16 12:47:45;;;;;;;2.65;1.80;;;11.60;68.50;;;;;;5120269;27;20051;-80
2021/04/16 12:50:15;;;;;;;2.15;1.95;;;11.70;68.40;;;;;;5109737;27;20511;-80
2021/04/16 12:52:40;;;;;;;5.70;2.00;;;11.80;68.70;;;;;;5106720;27;20020;-79
2021/04/16 12:55:07;;;;;;;5.40;2.00;;;12.00;67.10;;;;;;5113422;27;20428;-80
2021/04/16 12:58:04;;;;;;;3.08;2.42;;;11.90;66.80;;;;;;5115450;28;20102;-80
2021/04/16 13:00:33;;;;;;;3.33;2.40;;;12.00;67.10;;;;;;5104832;28;20036;-81
2021/04/16 13:03:08;;;;;;;2.90;2.35;;;12.00;67.60;;;;;;5110987;27;20034;-80
2021/04/16 13:05:35;;;;;;;2.92;2.53;;;12.10;67.40;;;;;;5126637;28;20466;-78
2021/04/16 13:08:05;;;;;;;3.78;2.10;;;12.10;67.70;;;;;;5110133;28;20028;-80
2021/04/16 13:10:31;;;;;;;3.17;2.20;;;12.10;67.60;;;;;;5105462;28;20043;-80
2021/04/16 13:12:57;;;;;;;4.25;2.28;;;12.30;69.40;;;;;;5104676;28;20024;-81
2021/04/16 13:15:23;;;;;;;4.22;2.20;;;12.20;67.70;;;;;;5100256;28;20528;-75
2021/04/16 13:18:13;;;;;;;5.72;2.50;;;12.20;66.90;;;;;;5109870;28;20524;-78
2021/04/16 13:20:38;;;;;;;2.60;2.20;;;12.30;67.30;;;;;;5107927;28;20459;-76
2021/04/16 13:23:04;;;;;;;6.32;2.65;;;12.20;68.80;;;;;;5108870;28;20088;-76
2021/04/16 13:25:30;;;;;;;4.97;2.70;;;12.20;68.20;;;;;;5114255;28;20027;-76
2021/04/16 13:27:56;;;;;;;4.07;3.03;;;12.20;68.60;;;;;;5112775;27;20518;-76
2021/04/16 13:30:27;;;;;;;2.80;2.60;;;12.30;70.10;;;;;;5108994;28;20087;-76
2021/04/16 13:32:58;;;;;;;5.88;2.72;;;12.40;68.50;;;;;;5114308;28;20114;-76
2021/04/16 13:35:36;;;;;;;5.18;2.80;;;12.60;68.80;;;;;;5108429;28;20049;-76
2021/04/16 13:38:05;;;;;;;4.10;2.60;;;12.80;69.10;;;;;;5125585;28;20031;-76
2021/04/16 13:40:32;;;;;;;3.47;3.17;;;12.80;69.00;;;;;;5124384;27;20034;-77
2021/04/16 13:42:58;;;;;;;4.32;3.03;;;12.80;67.90;;;;;;5128256;27;20037;-76
2021/04/16 13:45:24;;;;;;;4.38;3.20;;;12.70;68.10;;;;;;5120622;27;20024;-77
2021/04/16 13:47:49;;;;;;;3.83;3.20;;;12.70;68.50;;;;;;5126549;27;20061;-77
2021/04/16 13:50:16;;;;;;;5.20;2.85;;;12.70;68.10;;;;;;5135280;27;20054;-78
2021/04/16 13:52:43;;;;;;;5.40;2.75;;;12.80;67.80;;;;;;5134196;27;20047;-77
2021/04/16 13:55:10;;;;;;;3.40;2.60;;;12.80;68.40;;;;;;5135600;27;20083;-76
2021/04/16 13:57:35;;;;;;;4.28;3.05;;;12.70;67.10;;;;;;5133569;27;20023;-77
2021/04/16 14:00:03;;;;;;;6.90;3.03;;;12.80;68.50;;;;;;5133818;27;20030;-77
2021/04/16 14:02:37;;;;;;;5.55;2.92;;;12.80;67.50;;;;;;5131463;27;20079;-73
2021/04/16 14:05:06;;;;;;;5.10;2.40;;;13.00;69.30;;;;;;5128838;27;20027;-72
2021/04/16 14:07:32;;;;;;;3.08;2.75;;;13.00;66.80;;;;;;5130004;27;20402;-77
2021/04/16 14:09:58;;;;;;;3.05;2.35;;;13.10;65.60;;;;;;5135631;27;20026;-76
2021/04/16 14:12:23;;;;;;;6.93;2.80;;;13.10;66.20;;;;;;5133675;27;20019;-74
2021/04/16 14:14:49;;;;;;;4.15;2.88;;;13.10;64.00;;;;;;5128552;27;20052;-76
2021/04/16 14:17:20;;;;;;;2.85;2.42;;;13.20;65.50;;;;;;5126429;27;20019;-73
2021/04/16 14:20:02;;;;;;;6.15;2.60;;;13.30;64.90;;;;;;5128023;27;20047;-76
2021/04/16 14:22:42;;;;;;;5.28;3.00;;;13.30;62.30;;;;;;5129245;27;20019;-74
2021/04/16 14:25:11;;;;;;;3.90;2.53;;;13.20;63.00;;;;;;5128586;27;20019;-75
2021/04/16 14:27:37;;;;;;;2.85;2.20;;;13.30;62.60;;;;;;5128654;27;20454;-74
2021/04/16 14:30:15;;;;;;;3.67;3.17;;;13.20;62.40;;;;;;5128298;27;20019;-75
2021/04/16 14:32:40;;;;;;;2.33;2.05;;;13.10;64.20;;;;;;5125327;27;20106;-75
2021/04/16 14:35:06;;;;;;;2.50;1.90;;;13.30;63.60;;;;;;5124347;27;20232;-77
2021/04/16 14:37:32;;;;;;;5.95;2.75;;;13.30;62.50;;;;;;5125233;27;20023;-74
2021/04/16 14:39:58;;;;;;;3.35;2.03;;;13.40;62.90;;;;;;5135260;27;20386;-74
2021/04/16 14:42:24;;;;;;;8.25;2.60;;;13.50;63.70;;;;;;5133647;27;20062;-74
2021/04/16 14:44:49;;;;;;;3.80;2.38;;;13.60;61.90;;;;;;5131716;27;20458;-75
2021/04/16 14:47:15;;;;;;;4.30;2.58;;;13.50;62.80;;;;;;5131022;27;20490;-74
2021/04/16 14:49:40;;;;;;;2.95;2.65;;;13.40;63.00;;;;;;5134475;27;20390;-74
2021/04/16 14:52:10;;;;;;;12.05;2.47;;;13.40;64.70;;;;;;5129765;27;20023;-75
2021/04/16 14:54:45;;;;;;;3.35;2.20;;;13.30;64.10;;;;;;5124674;27;20021;-75
2021/04/16 14:57:25;;;;;;;5.75;2.15;;;13.30;64.90;;;;;;5134184;27;20031;-75
2021/04/16 14:59:52;;;;;;;2.92;1.92;;;13.40;64.30;;;;;;5126035;27;20019;-74
2021/04/16 15:02:18;;;;;;;2.38;2.05;;;13.30;64.40;;;;;;5130560;27;20023;-75
2021/04/16 15:04:43;;;;;;;2.10;1.90;;;13.30;64.80;;;;;;5120150;27;20177;-75
2021/04/16 15:07:11;;;;;;;3.40;2.47;;;13.20;64.30;;;;;;5126505;27;20046;-75
2021/04/16 15:09:55;;;;;;;6.03;2.50;;;13.20;64.30;;;;;;5122716;27;20398;-74
2021/04/16 15:12:27;;;;;;;2.97;2.58;;;13.20;65.40;;;;;;5123943;27;20037;-75
2021/04/16 15:14:58;;;;;;;6.47;2.08;;;13.30;65.80;;;;;;5118932;27;20038;-74
2021/04/16 15:17:24;;;;;;;3.17;2.25;;;13.30;64.50;;;;;;5119493;27;20498;-74